sensor_id;sensor_type;location;lat;lon;timestamp;pressure;altitude;pressure_sealevel;temperature;humidity
76044;BME280;64740;34.694;33.088;2023-02-04T00:01:45;1038.7;;;15;56.4
76044;BME280;64740;34.694;33.088;2023-02-04T00:06:25;1038.4;;;15;56.3
76044;BME280;64740;34.694;33.088;2023-02-04T00:11:35;1038.2;;;15;56.3
76044;BME280;64740;34.694;33.088;2023-02-04T00:16:11;1038.4;;;15;56.1
76044;BME280;64740;34.694;33.088;2023-02-04T00:21:35;1038.4;;;14.9;56.1
76044;BME280;64740;34.694;33.088;2023-02-04T00:26:59;1038.4;;;14.8;56.4
76044;BME280;64740;34.694;33.088;2023-02-04T00:31:39;1038.3;;;14.7;56.9
76044;BME280;64740;34.694;33.088;2023-02-04T00:36:47;1038.2;;;14.7;56.6
76044;BME280;64740;34.694;33.088;2023-02-04T00:41:37;1038.1;;;14.7;56.5
76044;BME280;64740;34.694;33.088;2023-02-04T00:47:02;1038.1;;;14.6;56.6
76044;BME280;64740;34.694;33.088;2023-02-04T00:51:23;1038.1;;;14.6;56.6
76044;BME280;64740;34.694;33.088;2023-02-04T00:56:32;1038;;;14.6;56.9
76044;BME280;64740;34.694;33.088;2023-02-04T01:01:25;1037.9;;;14.6;57.1
76044;BME280;64740;34.694;33.088;2023-02-04T01:06:59;1037.9;;;14.6;57.1
76044;BME280;64740;34.694;33.088;2023-02-04T01:11:11;1037.8;;;14.7;57
76044;BME280;64740;34.694;33.088;2023-02-04T01:17:01;1037.8;;;14.7;56.5
76044;BME280;64740;34.694;33.088;2023-02-04T01:22:01;1037.7;;;14.6;56.3
76044;BME280;64740;34.694;33.088;2023-02-04T01:26:49;1037.6;;;14.6;56.1
76044;BME280;64740;34.694;33.088;2023-02-04T01:31:59;1037.6;;;14.6;56.2
76044;BME280;64740;34.694;33.088;2023-02-04T01:36:37;1037.6;;;14.5;56.1
76044;BME280;64740;34.694;33.088;2023-02-04T01:42:02;1037.6;;;14.4;56.1
76044;BME280;64740;34.694;33.088;2023-02-04T01:46:12;1037.6;;;14.4;56.2
76044;BME280;64740;34.694;33.088;2023-02-04T01:51:47;1037.6;;;14.3;56.2
76044;BME280;64740;34.694;33.088;2023-02-04T01:56:13;1037.5;;;14.3;56.1
76044;BME280;64740;34.694;33.088;2023-02-04T02:01:59;1037.5;;;14.2;56.2
76044;BME280;64740;34.694;33.088;2023-02-04T02:06:11;1037.5;;;14.3;56.1
76044;BME280;64740;34.694;33.088;2023-02-04T02:11:57;1037.5;;;14.3;55.6
76044;BME280;64740;34.694;33.088;2023-02-04T02:16:57;1037.5;;;14.3;55.5
76044;BME280;64740;34.694;33.088;2023-02-04T02:21:48;1037.5;;;14.3;55.5
76044;BME280;64740;34.694;33.088;2023-02-04T02:26:45;1037.5;;;14.3;55.4
76044;BME280;64740;34.694;33.088;2023-02-04T02:31:23;1037.4;;;14.3;55.2
76044;BME280;64740;34.694;33.088;2023-02-04T02:36:35;1037.4;;;14.3;55.1
76044;BME280;64740;34.694;33.088;2023-02-04T02:41:11;1037.3;;;14.3;54.8
76044;BME280;64740;34.694;33.088;2023-02-04T02:46:45;1037.3;;;14.1;55
76044;BME280;64740;34.694;33.088;2023-02-04T02:51:11;1037.3;;;14;55
76044;BME280;64740;34.694;33.088;2023-02-04T02:56:47;1037.2;;;13.9;55.1
76044;BME280;64740;34.694;33.088;2023-02-04T03:01:33;1037.1;;;13.9;55
76044;BME280;64740;34.694;33.088;2023-02-04T03:06:57;1037.1;;;13.8;54.6
76044;BME280;64740;34.694;33.088;2023-02-04T03:11:46;1037.2;;;13.8;54.2
76044;BME280;64740;34.694;33.088;2023-02-04T03:16:35;1037.1;;;13.8;54.2
76044;BME280;64740;34.694;33.088;2023-02-04T03:21:49;1037.1;;;13.8;54.1
76044;BME280;64740;34.694;33.088;2023-02-04T03:26:36;1037;;;13.8;54.1
76044;BME280;64740;34.694;33.088;2023-02-04T03:31:47;1036.9;;;13.7;53.9
76044;BME280;64740;34.694;33.088;2023-02-04T03:36:11;1036.8;;;13.7;53.7
76044;BME280;64740;34.694;33.088;2023-02-04T03:41:45;1036.8;;;13.7;53.7
76044;BME280;64740;34.694;33.088;2023-02-04T03:46:23;1036.8;;;13.7;53.8
76044;BME280;64740;34.694;33.088;2023-02-04T03:51:58;1036.7;;;13.7;53.7
76044;BME280;64740;34.694;33.088;2023-02-04T03:56:35;1036.7;;;13.6;53.9
76044;BME280;64740;34.694;33.088;2023-02-04T04:01:47;1036.8;;;13.7;54.3
76044;BME280;64740;34.694;33.088;2023-02-04T04:06:41;1036.8;;;13.7;54.2
76044;BME280;64740;34.694;33.088;2023-02-04T04:11:45;1036.9;;;13.7;54.2
76044;BME280;64740;34.694;33.088;2023-02-04T04:16:35;1036.9;;;13.6;54.2
76044;BME280;64740;34.694;33.088;2023-02-04T04:21:21;1036.9;;;13.5;54.3
76044;BME280;64740;34.694;33.088;2023-02-04T04:26:55;1037;;;13.5;53.7
76044;BME280;64740;34.694;33.088;2023-02-04T04:31:19;1037;;;13.5;53.1
76044;BME280;64740;34.694;33.088;2023-02-04T04:36:47;1037;;;13.5;53.5
76044;BME280;64740;34.694;33.088;2023-02-04T04:41:58;1036.9;;;13.5;53
76044;BME280;64740;34.694;33.088;2023-02-04T04:46:57;1036.9;;;13.5;52.9
76044;BME280;64740;34.694;33.088;2023-02-04T04:51:23;1037;;;13.6;52.6
76044;BME280;64740;34.694;33.088;2023-02-04T04:56:57;1037.1;;;13.6;52.7
76044;BME280;64740;34.694;33.088;2023-02-04T05:01:33;1037.1;;;13.7;52.6
76044;BME280;64740;34.694;33.088;2023-02-04T05:06:21;1037.2;;;13.7;52.4
76044;BME280;64740;34.694;33.088;2023-02-04T05:11:25;1037.2;;;13.7;52.5
76044;BME280;64740;34.694;33.088;2023-02-04T05:16:43;1037.3;;;13.8;52.2
76044;BME280;64740;34.694;33.088;2023-02-04T05:21:59;1037.2;;;13.9;52.3
76044;BME280;64740;34.694;33.088;2023-02-04T05:26:11;1037.1;;;13.9;52.4
76044;BME280;64740;34.694;33.088;2023-02-04T05:31:23;1037.2;;;13.9;52.2
76044;BME280;64740;34.694;33.088;2023-02-04T05:36:43;1037.1;;;14;51.3
76044;BME280;64740;34.694;33.088;2023-02-04T05:41:48;1037.2;;;14.1;51
76044;BME280;64740;34.694;33.088;2023-02-04T05:46:35;1037.2;;;14.2;50.8
76044;BME280;64740;34.694;33.088;2023-02-04T05:51:59;1037.3;;;14.3;50.4
76044;BME280;64740;34.694;33.088;2023-02-04T05:56:23;1037.3;;;14.4;50.1
76044;BME280;64740;34.694;33.088;2023-02-04T06:01:25;1037.2;;;14.6;49.8
76044;BME280;64740;34.694;33.088;2023-02-04T06:06:45;1037.3;;;14.7;49.5
76044;BME280;64740;34.694;33.088;2023-02-04T06:11:23;1037.2;;;14.8;49.2
76044;BME280;64740;34.694;33.088;2023-02-04T06:16:34;1037.2;;;15;49
76044;BME280;64740;34.694;33.088;2023-02-04T06:21:33;1037.2;;;15.2;48.7
76044;BME280;64740;34.694;33.088;2023-02-04T06:26:12;1037.2;;;15.4;48.6
76044;BME280;64740;34.694;33.088;2023-02-04T06:31:59;1037.2;;;15.6;48.4
76044;BME280;64740;34.694;33.088;2023-02-04T06:36:11;1037.3;;;15.7;48.4
76044;BME280;64740;34.694;33.088;2023-02-04T06:41:21;1037.4;;;15.7;48.5
76044;BME280;64740;34.694;33.088;2023-02-04T06:46:57;1037.5;;;15.7;48.6
76044;BME280;64740;34.694;33.088;2023-02-04T06:51:41;1037.6;;;15.8;48.8
76044;BME280;64740;34.694;33.088;2023-02-04T06:56:43;1037.7;;;15.9;48.9
76044;BME280;64740;34.694;33.088;2023-02-04T07:01:36;1037.7;;;16.1;48.6
76044;BME280;64740;34.694;33.088;2023-02-04T07:06:11;1037.7;;;16.2;48.8
76044;BME280;64740;34.694;33.088;2023-02-04T07:11:23;1037.7;;;16.1;49.2
76044;BME280;64740;34.694;33.088;2023-02-04T07:16:57;1037.7;;;16.1;50
76044;BME280;64740;34.694;33.088;2023-02-04T07:21:37;1037.7;;;16.1;50
76044;BME280;64740;34.694;33.088;2023-02-04T07:26:59;1037.6;;;16.1;50.2
76044;BME280;64740;34.694;33.088;2023-02-04T07:31:41;1037.7;;;16.1;50.1
76044;BME280;64740;34.694;33.088;2023-02-04T07:36:58;1037.6;;;16.2;49.4
76044;BME280;64740;34.694;33.088;2023-02-04T07:41:25;1037.8;;;16.2;48.8
76044;BME280;64740;34.694;33.088;2023-02-04T07:46:37;1037.8;;;16.2;48.7
76044;BME280;64740;34.694;33.088;2023-02-04T07:51:24;1037.9;;;16.2;49.1
76044;BME280;64740;34.694;33.088;2023-02-04T07:57:03;1038;;;16;49.8
76044;BME280;64740;34.694;33.088;2023-02-04T08:01:37;1038.1;;;15.9;49.5
76044;BME280;64740;34.694;33.088;2023-02-04T08:07:00;1038.2;;;15.8;50
76044;BME280;64740;34.694;33.088;2023-02-04T08:11:59;1038.2;;;15.6;49.7
76044;BME280;64740;34.694;33.088;2023-02-04T08:16:39;1038.1;;;15.6;49.9
76044;BME280;64740;34.694;33.088;2023-02-04T08:21:37;1038.1;;;15.6;50
76044;BME280;64740;34.694;33.088;2023-02-04T08:26:40;1038.1;;;15.8;49.9
76044;BME280;64740;34.694;33.088;2023-02-04T08:31:43;1038;;;16.1;49.6
76044;BME280;64740;34.694;33.088;2023-02-04T08:36:28;1037.9;;;16.4;48.8
76044;BME280;64740;34.694;33.088;2023-02-04T08:41:43;1037.8;;;16.7;47.8
76044;BME280;64740;34.694;33.088;2023-02-04T08:46:26;1037.8;;;17.1;47.3
76044;BME280;64740;34.694;33.088;2023-02-04T08:51:45;1037.7;;;17.5;45.2
76044;BME280;64740;34.694;33.088;2023-02-04T08:56:33;1037.7;;;17.7;44.1
76044;BME280;64740;34.694;33.088;2023-02-04T09:02:00;1037.6;;;17.8;43.8
76044;BME280;64740;34.694;33.088;2023-02-04T09:06:48;1037.6;;;17.9;43.3
76044;BME280;64740;34.694;33.088;2023-02-04T09:12:00;1037.5;;;18.1;42.2
76044;BME280;64740;34.694;33.088;2023-02-04T09:16:45;1037.5;;;18.1;41.2
76044;BME280;64740;34.694;33.088;2023-02-04T09:21:23;1037.4;;;18;40.4
76044;BME280;64740;34.694;33.088;2023-02-04T09:26:48;1037.3;;;18;39.7
76044;BME280;64740;34.694;33.088;2023-02-04T09:31:12;1037.2;;;18.1;39.4
76044;BME280;64740;34.694;33.088;2023-02-04T09:36:59;1037.1;;;18.2;38.8
76044;BME280;64740;34.694;33.088;2023-02-04T09:41:24;1037;;;18.2;38.1
76044;BME280;64740;34.694;33.088;2023-02-04T09:46:45;1036.9;;;18.2;37.1
76044;BME280;64740;34.694;33.088;2023-02-04T09:51:37;1036.9;;;18.2;36.3
76044;BME280;64740;34.694;33.088;2023-02-04T09:57:04;1036.9;;;18.1;35
76044;BME280;64740;34.694;33.088;2023-02-04T10:01:50;1036.8;;;18.1;34.7
76044;BME280;64740;34.694;33.088;2023-02-04T10:06:47;1036.8;;;18.1;34.6
76044;BME280;64740;34.694;33.088;2023-02-04T10:11:55;1036.7;;;18;34.7
76044;BME280;64740;34.694;33.088;2023-02-04T10:16:38;1036.8;;;18.1;35.3
76044;BME280;64740;34.694;33.088;2023-02-04T10:21:48;1036.8;;;18.2;35.3
76044;BME280;64740;34.694;33.088;2023-02-04T10:26:12;1036.8;;;18.2;36
76044;BME280;64740;34.694;33.088;2023-02-04T10:31:50;1036.7;;;18.3;35.8
76044;BME280;64740;34.694;33.088;2023-02-04T10:36:24;1036.7;;;18.3;34.4
76044;BME280;64740;34.694;33.088;2023-02-04T10:42:02;1036.5;;;18.4;33.7
76044;BME280;64740;34.694;33.088;2023-02-04T10:46:33;1036.5;;;18.6;33.3
76044;BME280;64740;34.694;33.088;2023-02-04T10:51:48;1036.5;;;18.7;33.1
76044;BME280;64740;34.694;33.088;2023-02-04T10:56:47;1036.3;;;18.9;33.3
76044;BME280;64740;34.694;33.088;2023-02-04T11:02:00;1036.1;;;19.2;32.9
76044;BME280;64740;34.694;33.088;2023-02-04T11:06:22;1036.1;;;19.5;31.4
76044;BME280;64740;34.694;33.088;2023-02-04T11:11:25;1036;;;19.6;30.5
76044;BME280;64740;34.694;33.088;2023-02-04T11:17:01;1036;;;19.8;30.3
76044;BME280;64740;34.694;33.088;2023-02-04T11:21:13;1035.9;;;20.1;30.6
76044;BME280;64740;34.694;33.088;2023-02-04T11:26:50;1036;;;20.4;31.4
76044;BME280;64740;34.694;33.088;2023-02-04T11:32:01;1036;;;20.6;32.2
76044;BME280;64740;34.694;33.088;2023-02-04T11:37:03;1036;;;20.9;32.7
76044;BME280;64740;34.694;33.088;2023-02-04T11:41:37;1036;;;21.1;31.5
76044;BME280;64740;34.694;33.088;2023-02-04T11:46:59;1036;;;21.3;31.1
76044;BME280;64740;34.694;33.088;2023-02-04T11:51:13;1035.9;;;21.5;30.8
76044;BME280;64740;34.694;33.088;2023-02-04T11:56:38;1035.8;;;21.5;31.1
76044;BME280;64740;34.694;33.088;2023-02-04T12:01:15;1035.8;;;21.6;31.3
76044;BME280;64740;34.694;33.088;2023-02-04T12:06:19;1035.7;;;21.7;31
76044;BME280;64740;34.694;33.088;2023-02-04T12:11:34;1035.5;;;21.6;31.6
76044;BME280;64740;34.694;33.088;2023-02-04T12:16:12;1035.5;;;21.5;31.9
76044;BME280;64740;34.694;33.088;2023-02-04T12:21:38;1035.6;;;21.7;30.8
76044;BME280;64740;34.694;33.088;2023-02-04T12:27:01;1035.6;;;21.7;30.7
76044;BME280;64740;34.694;33.088;2023-02-04T12:31:36;1035.7;;;21.5;30.7
76044;BME280;64740;34.694;33.088;2023-02-04T12:36:33;1035.7;;;21.5;30
76044;BME280;64740;34.694;33.088;2023-02-04T12:41:57;1035.8;;;21.6;31
76044;BME280;64740;34.694;33.088;2023-02-04T12:46:45;1035.9;;;21.5;30.1
76044;BME280;64740;34.694;33.088;2023-02-04T12:51:12;1036;;;21.3;30
76044;BME280;64740;34.694;33.088;2023-02-04T12:56:38;1036;;;20.9;29.8
76044;BME280;64740;34.694;33.088;2023-02-04T13:01:36;1036.2;;;20.8;30
76044;BME280;64740;34.694;33.088;2023-02-04T13:06:11;1036.1;;;20.9;29.5
76044;BME280;64740;34.694;33.088;2023-02-04T13:11:25;1036;;;21.3;30
76044;BME280;64740;34.694;33.088;2023-02-04T13:16:39;1036;;;21.7;29.4
76044;BME280;64740;34.694;33.088;2023-02-04T13:22:02;1036;;;22.2;29.1
76044;BME280;64740;34.694;33.088;2023-02-04T13:26:38;1036;;;22.5;29.4
76044;BME280;64740;34.694;33.088;2023-02-04T13:31:11;1036.1;;;22.7;28.9
76044;BME280;64740;34.694;33.088;2023-02-04T13:37:00;1036.1;;;22.7;29
76044;BME280;64740;34.694;33.088;2023-02-04T13:41:48;1036.2;;;22.7;29.3
76044;BME280;64740;34.694;33.088;2023-02-04T13:46:24;1036.2;;;22.3;29.4
76044;BME280;64740;34.694;33.088;2023-02-04T13:51:36;1036.1;;;22;29.4
76044;BME280;64740;34.694;33.088;2023-02-04T13:56:11;1036.1;;;21.8;29.5
76044;BME280;64740;34.694;33.088;2023-02-04T14:01:50;1036;;;21.5;29.6
76044;BME280;64740;34.694;33.088;2023-02-04T14:07:02;1036.1;;;21.5;30
76044;BME280;64740;34.694;33.088;2023-02-04T14:11:40;1036;;;21.8;29.6
76044;BME280;64740;34.694;33.088;2023-02-04T14:16:47;1036;;;22.2;29.1
76044;BME280;64740;34.694;33.088;2023-02-04T14:21:40;1036.3;;;22.5;28.7
76044;BME280;64740;34.694;33.088;2023-02-04T14:26:52;1036.3;;;22.4;28.7
76044;BME280;64740;34.694;33.088;2023-02-04T14:31:50;1036.2;;;21.5;29.6
76044;BME280;64740;34.694;33.088;2023-02-04T14:36:44;1036.3;;;20.8;30.4
76044;BME280;64740;34.694;33.088;2023-02-04T14:41:50;1036.3;;;20;31
76044;BME280;64740;34.694;33.088;2023-02-04T14:47:00;1036.3;;;19.4;31.6
76044;BME280;64740;34.694;33.088;2023-02-04T14:51:25;1036.3;;;19;32.2
76044;BME280;64740;34.694;33.088;2023-02-04T14:57:00;1036.3;;;18.8;32.9
76044;BME280;64740;34.694;33.088;2023-02-04T15:02:00;1036.3;;;18.5;33.4
76044;BME280;64740;34.694;33.088;2023-02-04T15:06:48;1036.4;;;18.3;34.1
76044;BME280;64740;34.694;33.088;2023-02-04T15:11:46;1036.4;;;18;35
76044;BME280;64740;34.694;33.088;2023-02-04T15:16:38;1036.5;;;17.8;35.7
76044;BME280;64740;34.694;33.088;2023-02-04T15:21:48;1036.6;;;17.6;36.4
76044;BME280;64740;34.694;33.088;2023-02-04T15:26:38;1036.6;;;17.6;36.4
76044;BME280;64740;34.694;33.088;2023-02-04T15:31:44;1036.7;;;17.3;37.4
76044;BME280;64740;34.694;33.088;2023-02-04T15:36:26;1036.8;;;17.1;38
76044;BME280;64740;34.694;33.088;2023-02-04T15:41:48;1036.8;;;17.1;38.3
76044;BME280;64740;34.694;33.088;2023-02-04T15:46:36;1036.9;;;17.1;38.5
76044;BME280;64740;34.694;33.088;2023-02-04T15:52:00;1037;;;17;38.7
76044;BME280;64740;34.694;33.088;2023-02-04T15:56:38;1037;;;16.9;38.9
76044;BME280;64740;34.694;33.088;2023-02-04T16:01:44;1037.1;;;16.9;39
76044;BME280;64740;34.694;33.088;2023-02-04T16:06:50;1037.2;;;16.9;38.9
76044;BME280;64740;34.694;33.088;2023-02-04T16:11:24;1037.2;;;16.8;39.1
76044;BME280;64740;34.694;33.088;2023-02-04T16:16:45;1037.2;;;16.8;39.2
76044;BME280;64740;34.694;33.088;2023-02-04T16:21:44;1037.3;;;16.7;39.3
76044;BME280;64740;34.694;33.088;2023-02-04T16:26:42;1037.3;;;16.6;39.3
76044;BME280;64740;34.694;33.088;2023-02-04T16:31:24;1037.3;;;16.6;39.4
76044;BME280;64740;34.694;33.088;2023-02-04T16:36:23;1037.4;;;16.6;39.5
76044;BME280;64740;34.694;33.088;2023-02-04T16:41:42;1037.5;;;16.6;39.6
76044;BME280;64740;34.694;33.088;2023-02-04T16:46:58;1037.5;;;16.6;39.7
76044;BME280;64740;34.694;33.088;2023-02-04T16:51:45;1037.4;;;16.5;39.7
76044;BME280;64740;34.694;33.088;2023-02-04T16:56:48;1037.4;;;16.5;39.8
76044;BME280;64740;34.694;33.088;2023-02-04T17:01:58;1037.3;;;16.5;39.8
76044;BME280;64740;34.694;33.088;2023-02-04T17:06:26;1037.3;;;16.5;39.8
76044;BME280;64740;34.694;33.088;2023-02-04T17:11:12;1037.3;;;16.5;39.9
76044;BME280;64740;34.694;33.088;2023-02-04T17:16:26;1037.3;;;16.6;39.9
76044;BME280;64740;34.694;33.088;2023-02-04T17:21:38;1037.3;;;16.6;39.8
76044;BME280;64740;34.694;33.088;2023-02-04T17:26:26;1037.4;;;16.7;39.9
76044;BME280;64740;34.694;33.088;2023-02-04T17:31:56;1037.5;;;16.7;39.9
76044;BME280;64740;34.694;33.088;2023-02-04T17:36:20;1037.5;;;16.6;40.3
76044;BME280;64740;34.694;33.088;2023-02-04T17:41:35;1037.6;;;15.6;42
76044;BME280;64740;34.694;33.088;2023-02-04T17:46:48;1037.6;;;14.7;44.6
76044;BME280;64740;34.694;33.088;2023-02-04T17:52:00;1037.5;;;14.1;45.9
76044;BME280;64740;34.694;33.088;2023-02-04T17:56:36;1037.6;;;13.8;46.5
76044;BME280;64740;34.694;33.088;2023-02-04T18:01:24;1037.6;;;13.6;46.6
76044;BME280;64740;34.694;33.088;2023-02-04T18:06:50;1037.7;;;13.4;46.5
76044;BME280;64740;34.694;33.088;2023-02-04T18:11:13;1037.7;;;13.3;46.7
76044;BME280;64740;34.694;33.088;2023-02-04T18:16:48;1037.7;;;13.2;47.2
76044;BME280;64740;34.694;33.088;2023-02-04T18:21:58;1037.6;;;13.2;47.5
76044;BME280;64740;34.694;33.088;2023-02-04T18:26:58;1037.6;;;13.1;47.5
76044;BME280;64740;34.694;33.088;2023-02-04T18:31:20;1037.5;;;13.1;47.5
76044;BME280;64740;34.694;33.088;2023-02-04T18:36:58;1037.5;;;13.1;47.7
76044;BME280;64740;34.694;33.088;2023-02-04T18:41:36;1037.5;;;13.1;47.9
76044;BME280;64740;34.694;33.088;2023-02-04T18:46:15;1037.5;;;13;48
76044;BME280;64740;34.694;33.088;2023-02-04T18:51:37;1037.5;;;13;48.1
76044;BME280;64740;34.694;33.088;2023-02-04T18:56:24;1037.5;;;13;48.1
76044;BME280;64740;34.694;33.088;2023-02-04T19:01:13;1037.5;;;12.9;48.3
76044;BME280;64740;34.694;33.088;2023-02-04T19:06:24;1037.5;;;12.9;48.5
76044;BME280;64740;34.694;33.088;2023-02-04T19:11:37;1037.5;;;12.9;48.5
76044;BME280;64740;34.694;33.088;2023-02-04T19:17:00;1037.6;;;12.9;48.6
76044;BME280;64740;34.694;33.088;2023-02-04T19:21:25;1037.6;;;12.8;48.9
76044;BME280;64740;34.694;33.088;2023-02-04T19:26:37;1037.5;;;12.8;49.3
76044;BME280;64740;34.694;33.088;2023-02-04T19:31:58;1037.4;;;12.8;49.2
76044;BME280;64740;34.694;33.088;2023-02-04T19:36:56;1037.4;;;12.7;49.1
76044;BME280;64740;34.694;33.088;2023-02-04T19:41:25;1037.5;;;12.7;48.9
76044;BME280;64740;34.694;33.088;2023-02-04T19:46:34;1037.5;;;12.7;48.9
76044;BME280;64740;34.694;33.088;2023-02-04T19:51:20;1037.4;;;12.7;48.8
76044;BME280;64740;34.694;33.088;2023-02-04T19:56:34;1037.4;;;13;48.1
76044;BME280;64740;34.694;33.088;2023-02-04T20:01:58;1037.4;;;13.5;47.3
76044;BME280;64740;34.694;33.088;2023-02-04T20:06:39;1037.4;;;13.9;46.6
76044;BME280;64740;34.694;33.088;2023-02-04T20:12:00;1037.4;;;14.3;46
76044;BME280;64740;34.694;33.088;2023-02-04T20:16:24;1037.4;;;14.6;45.5
76044;BME280;64740;34.694;33.088;2023-02-04T20:21:12;1037.4;;;14.8;45.1
76044;BME280;64740;34.694;33.088;2023-02-04T20:27:00;1037.4;;;15;44.7
76044;BME280;64740;34.694;33.088;2023-02-04T20:31:44;1037.4;;;15.1;44.4
76044;BME280;64740;34.694;33.088;2023-02-04T20:36:26;1037.4;;;15.2;44.2
76044;BME280;64740;34.694;33.088;2023-02-04T20:41:34;1037.3;;;15.3;43.9
76044;BME280;64740;34.694;33.088;2023-02-04T20:46:24;1037.3;;;15.3;43.5
76044;BME280;64740;34.694;33.088;2023-02-04T20:51:36;1037.2;;;15.4;43.3
76044;BME280;64740;34.694;33.088;2023-02-04T20:56:58;1037.3;;;15.4;43
76044;BME280;64740;34.694;33.088;2023-02-04T21:01:46;1037.2;;;15.5;42.7
76044;BME280;64740;34.694;33.088;2023-02-04T21:07:00;1037.2;;;15.5;42.4
76044;BME280;64740;34.694;33.088;2023-02-04T21:11:48;1037.1;;;15.5;42.5
76044;BME280;64740;34.694;33.088;2023-02-04T21:17:00;1037;;;15.5;42.4
76044;BME280;64740;34.694;33.088;2023-02-04T21:21:24;1036.8;;;15.5;42.3
76044;BME280;64740;34.694;33.088;2023-02-04T21:26:36;1036.7;;;15.5;42.2
76044;BME280;64740;34.694;33.088;2023-02-04T21:31:24;1036.6;;;15.5;42.2
76044;BME280;64740;34.694;33.088;2023-02-04T21:36:56;1036.5;;;15.5;42.2
76044;BME280;64740;34.694;33.088;2023-02-04T21:41:36;1036.4;;;15.5;42.3
76044;BME280;64740;34.694;33.088;2023-02-04T21:46:58;1036.4;;;15.5;42.4
76044;BME280;64740;34.694;33.088;2023-02-04T21:51:58;1036.4;;;15.5;42.4
76044;BME280;64740;34.694;33.088;2023-02-04T21:56:46;1036.3;;;15.5;42.4
76044;BME280;64740;34.694;33.088;2023-02-04T22:01:32;1036.1;;;15.5;42.4
76044;BME280;64740;34.694;33.088;2023-02-04T22:06:46;1036;;;15.5;42.5
76044;BME280;64740;34.694;33.088;2023-02-04T22:11:46;1035.9;;;15.5;42.4
76044;BME280;64740;34.694;33.088;2023-02-04T22:16:12;1035.9;;;15.4;42.4
76044;BME280;64740;34.694;33.088;2023-02-04T22:21:36;1035.8;;;15.4;42.4
76044;BME280;64740;34.694;33.088;2023-02-04T22:26:12;1035.7;;;15.4;42.5
76044;BME280;64740;34.694;33.088;2023-02-04T22:31:38;1035.6;;;15.5;42.6
76044;BME280;64740;34.694;33.088;2023-02-04T22:36:34;1035.5;;;15.5;42.7
76044;BME280;64740;34.694;33.088;2023-02-04T22:41:58;1035.4;;;15.4;42.7
76044;BME280;64740;34.694;33.088;2023-02-04T22:46:46;1035.4;;;15.4;42.5
76044;BME280;64740;34.694;33.088;2023-02-04T22:51:46;1035.4;;;15.4;42.7
76044;BME280;64740;34.694;33.088;2023-02-04T22:57:00;1035.3;;;15.4;43.1
76044;BME280;64740;34.694;33.088;2023-02-04T23:01:24;1035.2;;;15.5;43.3
76044;BME280;64740;34.694;33.088;2023-02-04T23:06:48;1035;;;15.6;43.2
76044;BME280;64740;34.694;33.088;2023-02-04T23:11:12;1034.9;;;15.6;43.3
76044;BME280;64740;34.694;33.088;2023-02-04T23:16:36;1035;;;15.6;43.5
76044;BME280;64740;34.694;33.088;2023-02-04T23:21:12;1035;;;15.6;43.3
76044;BME280;64740;34.694;33.088;2023-02-04T23:26:58;1035.1;;;15.6;43.6
76044;BME280;64740;34.694;33.088;2023-02-04T23:31:12;1035;;;15.6;44.8
76044;BME280;64740;34.694;33.088;2023-02-04T23:36:38;1035.1;;;15.6;46
76044;BME280;64740;34.694;33.088;2023-02-04T23:41:46;1035.1;;;15.5;46.7
76044;BME280;64740;34.694;33.088;2023-02-04T23:46:58;1034.8;;;15.4;47.6
76044;BME280;64740;34.694;33.088;2023-02-04T23:51:58;1034.7;;;15.4;48
76044;BME280;64740;34.694;33.088;2023-02-04T23:56:24;1034.9;;;15.3;48.8
